Time;durP1;ratioP1;P1;durP2;ratioP2;P2;SDS_P1;SDS_P2;PMS_P1;PMS_P2;Temp;Humidity;BMP_temperature;BMP_pressure;BME280_temperature;BME280_humidity;BME280_pressure;Samples;Min_cycle;Max_cycle;Signal;HPM_P1;HPM_P2
2023/05/12 00:00:39;;;;;;;11.90;9.70;;;;;;;;;;5021052;28;20194;-77
2023/05/12 00:03:05;;;;;;;9.57;8.60;;;;;;;;;;5015781;28;20199;-77
2023/05/12 00:05:31;;;;;;;10.27;9.17;;;;;;;;;;5020646;28;20197;-77
2023/05/12 00:07:58;;;;;;;11.13;9.10;;;;;;;;;;5018322;28;20183;-77
2023/05/12 00:10:26;;;;;;;10.97;9.03;;;;;;;;;;5017524;28;20280;-77
2023/05/12 00:12:54;;;;;;;9.43;8.40;;;;;;;;;;5014135;28;20239;-77
2023/05/12 00:15:20;;;;;;;10.00;8.07;;;;;;;;;;5002977;28;20180;-77
2023/05/12 00:17:46;;;;;;;8.83;7.93;;;;;;;;;;5013896;28;20266;-77
2023/05/12 00:20:12;;;;;;;10.17;8.67;;;;;;;;;;5008034;28;20186;-77
2023/05/12 00:22:39;;;;;;;10.37;8.90;;;;;;;;;;5021628;28;20206;-77
2023/05/12 00:25:05;;;;;;;9.07;8.17;;;;;;;;;;5009326;28;21236;-76
2023/05/12 00:27:32;;;;;;;9.63;8.63;;;;;;;;;;5013188;28;20199;-77
2023/05/12 00:29:58;;;;;;;9.10;8.20;;;;;;;;;;5011286;28;20183;-77
2023/05/12 00:32:24;;;;;;;9.73;8.73;;;;;;;;;;5025100;28;20240;-77
2023/05/12 00:34:53;;;;;;;11.10;8.80;;;;;;;;;;5017220;28;20624;-77
2023/05/12 00:37:19;;;;;;;10.20;9.13;;;;;;;;;;5031332;28;20178;-77
2023/05/12 00:39:45;;;;;;;10.40;8.03;;;;;;;;;;5023409;28;20179;-77
2023/05/12 00:42:11;;;;;;;10.53;9.30;;;;;;;;;;5020811;28;20229;-77
2023/05/12 00:44:38;;;;;;;8.50;7.70;;;;;;;;;;4999832;28;20195;-77
2023/05/12 00:47:04;;;;;;;9.00;8.10;;;;;;;;;;5026281;28;20190;-77
2023/05/12 00:49:31;;;;;;;9.63;8.30;;;;;;;;;;5019146;28;20190;-77
2023/05/12 00:51:57;;;;;;;8.40;7.50;;;;;;;;;;5043692;28;20698;-77
2023/05/12 00:54:28;;;;;;;9.40;8.50;;;;;;;;;;4998826;28;20229;-77
2023/05/12 00:56:54;;;;;;;8.83;7.93;;;;;;;;;;4998614;28;20180;-77
2023/05/12 00:59:22;;;;;;;10.20;8.77;;;;;;;;;;5023706;28;20571;-77
2023/05/12 01:01:49;;;;;;;9.77;8.77;;;;;;;;;;5033626;28;20226;-77
2023/05/12 01:04:16;;;;;;;10.33;9.13;;;;;;;;;;5033424;28;20179;-77
2023/05/12 01:06:42;;;;;;;10.43;9.33;;;;;;;;;;5035014;28;20178;-77
2023/05/12 01:09:09;;;;;;;13.10;10.40;;;;;;;;;;5033972;28;20182;-77
2023/05/12 01:11:36;;;;;;;11.83;9.83;;;;;;;;;;5022848;28;20207;-77
2023/05/12 01:14:04;;;;;;;9.70;8.57;;;;;;;;;;4986156;28;20178;-77
2023/05/12 01:16:35;;;;;;;10.80;9.47;;;;;;;;;;5021415;28;20221;-77
2023/05/12 01:19:04;;;;;;;10.83;8.70;;;;;;;;;;4990990;28;20219;-77
2023/05/12 01:21:30;;;;;;;10.10;8.77;;;;;;;;;;5019074;28;20260;-77
2023/05/12 01:24:02;;;;;;;11.33;9.63;;;;;;;;;;4993400;28;20440;-77
2023/05/12 01:26:31;;;;;;;12.97;10.50;;;;;;;;;;5023511;28;20224;-77
2023/05/12 01:29:00;;;;;;;13.10;9.70;;;;;;;;;;5023351;28;20658;-77
2023/05/12 01:31:26;;;;;;;10.63;9.23;;;;;;;;;;5016297;28;20305;-77
2023/05/12 01:33:52;;;;;;;9.20;8.20;;;;;;;;;;5012613;28;20695;-77
2023/05/12 01:36:19;;;;;;;9.90;8.90;;;;;;;;;;5013082;28;20506;-77
2023/05/12 01:38:45;;;;;;;10.20;8.90;;;;;;;;;;5031509;28;20175;-77
2023/05/12 01:41:11;;;;;;;9.73;7.73;;;;;;;;;;5030310;28;20182;-77
2023/05/12 01:43:37;;;;;;;9.43;8.47;;;;;;;;;;5012581;28;20226;-77
2023/05/12 01:46:03;;;;;;;10.27;8.53;;;;;;;;;;5012517;28;20187;-77
2023/05/12 01:48:30;;;;;;;10.03;8.20;;;;;;;;;;4995630;28;20199;-77
2023/05/12 01:51:00;;;;;;;9.33;8.13;;;;;;;;;;5012860;28;20207;-77
2023/05/12 01:53:26;;;;;;;9.77;8.67;;;;;;;;;;5012178;28;20274;-77
2023/05/12 01:55:52;;;;;;;10.13;8.60;;;;;;;;;;5012349;28;20496;-77
2023/05/12 01:58:19;;;;;;;9.60;8.50;;;;;;;;;;5012375;28;20179;-77
2023/05/12 02:00:46;;;;;;;9.80;8.70;;;;;;;;;;5012164;28;20659;-76
2023/05/12 02:03:16;;;;;;;9.17;8.10;;;;;;;;;;5015617;28;20729;-77
2023/05/12 02:05:42;;;;;;;9.10;8.20;;;;;;;;;;5032053;28;20175;-77
2023/05/12 02:08:08;;;;;;;8.10;7.30;;;;;;;;;;5028007;28;20187;-77
2023/05/12 02:10:35;;;;;;;8.43;7.53;;;;;;;;;;5018384;28;20291;-76
2023/05/12 02:13:01;;;;;;;10.57;9.40;;;;;;;;;;5019282;28;20248;-77
2023/05/12 02:15:29;;;;;;;12.47;9.97;;;;;;;;;;5031429;28;20178;-77
2023/05/12 02:17:57;;;;;;;10.47;9.37;;;;;;;;;;5017192;28;20261;-77
2023/05/12 02:20:23;;;;;;;9.97;8.90;;;;;;;;;;4995292;28;20287;-77
2023/05/12 02:22:50;;;;;;;11.67;10.23;;;;;;;;;;5011351;28;20346;-77
2023/05/12 02:25:16;;;;;;;9.73;8.60;;;;;;;;;;5014389;28;20179;-77
2023/05/12 02:27:43;;;;;;;10.80;9.23;;;;;;;;;;5020742;28;20531;-77
2023/05/12 02:30:10;;;;;;;11.37;8.73;;;;;;;;;;5031832;28;20198;-77
2023/05/12 02:32:36;;;;;;;8.97;8.07;;;;;;;;;;5031209;28;20198;-77
2023/05/12 02:35:05;;;;;;;10.87;8.87;;;;;;;;;;5031885;28;20597;-77
2023/05/12 02:37:31;;;;;;;8.33;7.50;;;;;;;;;;5021636;28;20492;-76
2023/05/12 02:39:58;;;;;;;10.00;8.53;;;;;;;;;;5022473;28;20246;-76
2023/05/12 02:42:27;;;;;;;9.50;7.60;;;;;;;;;;5010638;28;20214;-76
2023/05/12 02:44:53;;;;;;;10.53;8.93;;;;;;;;;;5012247;28;20187;-77
2023/05/12 02:47:19;;;;;;;11.63;9.20;;;;;;;;;;5009217;28;20238;-77
2023/05/12 02:49:46;;;;;;;9.80;8.80;;;;;;;;;;5024026;28;20196;-77
2023/05/12 02:52:12;;;;;;;9.50;8.50;;;;;;;;;;5017942;28;20277;-77
2023/05/12 02:54:38;;;;;;;11.63;9.70;;;;;;;;;;5008418;28;20274;-76
2023/05/12 02:57:05;;;;;;;9.83;8.70;;;;;;;;;;5018252;28;20244;-76
2023/05/12 02:59:31;;;;;;;9.87;8.40;;;;;;;;;;5030468;28;20179;-77
2023/05/12 03:01:57;;;;;;;9.30;8.30;;;;;;;;;;5032729;28;20195;-77
2023/05/12 03:04:23;;;;;;;10.30;8.30;;;;;;;;;;5029560;28;20183;-77
2023/05/12 03:06:50;;;;;;;9.47;8.10;;;;;;;;;;5035954;28;20191;-77
2023/05/12 03:09:16;;;;;;;10.23;8.83;;;;;;;;;;5012747;28;20631;-77
2023/05/12 03:11:43;;;;;;;9.60;8.17;;;;;;;;;;5015702;28;20222;-76
2023/05/12 03:14:09;;;;;;;10.53;9.30;;;;;;;;;;5018339;28;20182;-77
2023/05/12 03:16:35;;;;;;;12.77;9.70;;;;;;;;;;5020146;28;20166;-75
2023/05/12 03:19:03;;;;;;;10.53;8.83;;;;;;;;;;5017150;28;20182;-77
2023/05/12 03:21:29;;;;;;;11.30;9.30;;;;;;;;;;5020460;28;20706;-77
2023/05/12 03:23:57;;;;;;;10.37;8.93;;;;;;;;;;5017736;28;20205;-77
2023/05/12 03:26:23;;;;;;;11.73;9.83;;;;;;;;;;5001854;28;20201;-77
2023/05/12 03:28:49;;;;;;;13.70;10.83;;;;;;;;;;5018005;28;20191;-77
2023/05/12 03:31:15;;;;;;;15.27;12.07;;;;;;;;;;5017848;28;20234;-77
2023/05/12 03:33:41;;;;;;;12.67;10.57;;;;;;;;;;5021121;28;20202;-77
2023/05/12 03:36:07;;;;;;;16.73;13.00;;;;;;;;;;5018170;28;20683;-77
2023/05/12 03:38:34;;;;;;;15.50;11.87;;;;;;;;;;5020537;28;20213;-77
2023/05/12 03:41:06;;;;;;;14.87;11.40;;;;;;;;;;5016073;28;20183;-76
2023/05/12 03:43:34;;;;;;;18.67;12.93;;;;;;;;;;4982030;28;20713;-76
2023/05/12 03:46:01;;;;;;;16.33;11.83;;;;;;;;;;5019830;28;20196;-77
2023/05/12 03:48:27;;;;;;;14.87;11.50;;;;;;;;;;5017921;28;20203;-77
2023/05/12 03:50:53;;;;;;;14.50;11.73;;;;;;;;;;5012506;28;20673;-77
2023/05/12 03:53:19;;;;;;;14.33;11.53;;;;;;;;;;5030115;28;20729;-77
2023/05/12 03:55:45;;;;;;;15.40;11.93;;;;;;;;;;5021240;28;20174;-77
2023/05/12 03:58:11;;;;;;;16.07;12.23;;;;;;;;;;5016066;28;20637;-77
2023/05/12 04:00:38;;;;;;;16.97;13.00;;;;;;;;;;5014099;28;20191;-77
2023/05/12 04:03:04;;;;;;;13.50;11.60;;;;;;;;;;5024400;28;20281;-77
2023/05/12 04:05:30;;;;;;;13.90;11.53;;;;;;;;;;5021953;28;20185;-77
2023/05/12 04:07:56;;;;;;;19.77;12.97;;;;;;;;;;5017864;28;20638;-77
2023/05/12 04:10:22;;;;;;;16.23;12.73;;;;;;;;;;5029638;28;20613;-77
2023/05/12 04:12:49;;;;;;;18.10;13.60;;;;;;;;;;5026872;28;20569;-77
2023/05/12 04:15:15;;;;;;;17.30;12.47;;;;;;;;;;5028182;28;20187;-76
2023/05/12 04:17:41;;;;;;;15.30;11.97;;;;;;;;;;5020399;28;20187;-77
2023/05/12 04:20:08;;;;;;;16.80;13.17;;;;;;;;;;5022764;28;20678;-77
2023/05/12 04:22:34;;;;;;;16.30;12.63;;;;;;;;;;5022574;28;20216;-77
2023/05/12 04:25:00;;;;;;;16.73;12.73;;;;;;;;;;5022564;28;20187;-77
2023/05/12 04:27:27;;;;;;;16.47;12.47;;;;;;;;;;5025876;28;20183;-77
2023/05/12 04:29:53;;;;;;;13.87;11.27;;;;;;;;;;5022578;28;20183;-77
2023/05/12 04:32:20;;;;;;;16.77;12.33;;;;;;;;;;5024958;28;20219;-77
2023/05/12 04:34:47;;;;;;;15.83;11.23;;;;;;;;;;5001637;28;20183;-77
2023/05/12 04:37:13;;;;;;;16.20;11.40;;;;;;;;;;5020338;28;20225;-77
2023/05/12 04:39:39;;;;;;;14.53;11.23;;;;;;;;;;5018175;28;20249;-76
2023/05/12 04:42:06;;;;;;;14.57;11.47;;;;;;;;;;5018437;28;20203;-76
2023/05/12 04:44:33;;;;;;;12.40;10.00;;;;;;;;;;5019826;28;20184;-77
2023/05/12 04:47:00;;;;;;;13.80;10.27;;;;;;;;;;5008650;28;20213;-77
2023/05/12 04:49:26;;;;;;;14.77;11.07;;;;;;;;;;5017716;28;20187;-77
2023/05/12 04:51:52;;;;;;;13.93;10.70;;;;;;;;;;5011553;28;20304;-76
2023/05/12 04:54:18;;;;;;;15.70;12.50;;;;;;;;;;5018056;28;20182;-77
2023/05/12 04:56:44;;;;;;;16.33;12.87;;;;;;;;;;5021136;28;20195;-76
2023/05/12 04:59:11;;;;;;;18.77;14.13;;;;;;;;;;5016529;28;20233;-77
2023/05/12 05:01:37;;;;;;;18.97;14.47;;;;;;;;;;5024702;28;20236;-76
2023/05/12 05:04:03;;;;;;;19.33;15.03;;;;;;;;;;5014230;28;20642;-77
2023/05/12 05:06:30;;;;;;;16.70;12.70;;;;;;;;;;5025134;28;20183;-77
2023/05/12 05:08:58;;;;;;;16.43;12.13;;;;;;;;;;5010399;28;20194;-77
2023/05/12 05:11:24;;;;;;;19.07;13.93;;;;;;;;;;5030391;28;20202;-80
2023/05/12 05:13:51;;;;;;;19.57;14.53;;;;;;;;;;5028622;28;20198;-76
2023/05/12 05:16:17;;;;;;;19.33;14.17;;;;;;;;;;5011212;28;20213;-80
2023/05/12 05:18:46;;;;;;;17.63;13.17;;;;;;;;;;5019214;28;20190;-80
2023/05/12 05:21:13;;;;;;;15.20;12.03;;;;;;;;;;5018536;28;20253;-80
2023/05/12 05:23:40;;;;;;;13.40;11.20;;;;;;;;;;5017650;28;20206;-80
2023/05/12 05:26:07;;;;;;;15.70;11.07;;;;;;;;;;4999170;28;20237;-78
2023/05/12 05:28:33;;;;;;;11.47;8.77;;;;;;;;;;5014918;28;20214;-80
2023/05/12 05:31:00;;;;;;;10.00;7.13;;;;;;;;;;5016334;28;20219;-82
2023/05/12 05:33:26;;;;;;;9.03;5.70;;;;;;;;;;4998307;28;20736;-79
2023/05/12 05:35:52;;;;;;;6.73;4.40;;;;;;;;;;5013016;28;20211;-79
2023/05/12 05:38:18;;;;;;;7.83;4.77;;;;;;;;;;5005808;28;20186;-79
2023/05/12 05:40:45;;;;;;;9.30;5.67;;;;;;;;;;5014060;28;20201;-79
2023/05/12 05:43:11;;;;;;;6.33;5.47;;;;;;;;;;5011646;28;20244;-79
2023/05/12 05:45:37;;;;;;;6.83;5.70;;;;;;;;;;4976820;28;20184;-79
2023/05/12 05:48:04;;;;;;;7.97;5.97;;;;;;;;;;4973956;28;20187;-80
2023/05/12 05:50:30;;;;;;;6.97;4.90;;;;;;;;;;4998513;28;20213;-79
2023/05/12 05:52:56;;;;;;;5.77;4.77;;;;;;;;;;4994520;28;20596;-80
2023/05/12 05:55:23;;;;;;;3.80;3.27;;;;;;;;;;5011839;28;20214;-80
2023/05/12 05:57:50;;;;;;;3.27;2.97;;;;;;;;;;4995884;28;20645;-79
2023/05/12 06:00:17;;;;;;;2.60;2.20;;;;;;;;;;5007232;28;20613;-79
2023/05/12 06:02:46;;;;;;;2.87;2.60;;;;;;;;;;5008206;28;20605;-80
2023/05/12 06:05:17;;;;;;;2.90;2.57;;;;;;;;;;5023414;28;20180;-80
2023/05/12 06:07:43;;;;;;;2.70;2.50;;;;;;;;;;5011937;28;20179;-80
2023/05/12 06:10:09;;;;;;;2.47;2.03;;;;;;;;;;5013063;28;20184;-78
2023/05/12 06:12:35;;;;;;;3.00;2.37;;;;;;;;;;5006306;28;20703;-77
2023/05/12 06:15:01;;;;;;;3.80;2.50;;;;;;;;;;5002251;28;20211;-77
2023/05/12 06:17:27;;;;;;;2.37;2.17;;;;;;;;;;4995393;28;20191;-77
2023/05/12 06:19:54;;;;;;;2.50;2.30;;;;;;;;;;4994398;28;20187;-77
2023/05/12 06:22:20;;;;;;;2.53;2.33;;;;;;;;;;5010605;28;20240;-77
2023/05/12 06:24:46;;;;;;;2.40;2.20;;;;;;;;;;5010899;28;20760;-78
2023/05/12 06:27:12;;;;;;;3.33;2.17;;;;;;;;;;5012806;28;20198;-78
2023/05/12 06:29:38;;;;;;;3.03;2.10;;;;;;;;;;5009780;28;20194;-78
2023/05/12 06:32:05;;;;;;;2.33;1.83;;;;;;;;;;5011767;28;20215;-81
2023/05/12 06:34:32;;;;;;;2.43;2.00;;;;;;;;;;5007267;28;20686;-81
2023/05/12 06:36:58;;;;;;;3.50;2.60;;;;;;;;;;5012459;28;20675;-81
2023/05/12 06:39:24;;;;;;;2.83;2.63;;;;;;;;;;5017012;28;20202;-81
2023/05/12 06:41:50;;;;;;;3.60;3.30;;;;;;;;;;5011745;28;20248;-81
2023/05/12 06:44:20;;;;;;;3.70;3.40;;;;;;;;;;4995185;28;20233;-81
2023/05/12 06:46:52;;;;;;;4.20;3.80;;;;;;;;;;4996173;28;20233;-81
2023/05/12 06:49:19;;;;;;;3.60;3.30;;;;;;;;;;5010678;28;20266;-81
2023/05/12 06:51:45;;;;;;;3.70;3.20;;;;;;;;;;5011402;28;20207;-81
2023/05/12 06:54:11;;;;;;;2.90;2.70;;;;;;;;;;5011999;28;20237;-81
2023/05/12 06:56:37;;;;;;;3.57;2.93;;;;;;;;;;5013622;28;20262;-81
2023/05/12 06:59:03;;;;;;;3.60;3.30;;;;;;;;;;5020154;28;20184;-81
2023/05/12 07:01:30;;;;;;;3.53;3.23;;;;;;;;;;4994709;28;20223;-81
2023/05/12 07:03:57;;;;;;;4.40;4.00;;;;;;;;;;4993852;28;20191;-81
2023/05/12 07:06:24;;;;;;;3.83;3.53;;;;;;;;;;5009440;28;20259;-81
2023/05/12 07:08:55;;;;;;;5.67;3.83;;;;;;;;;;5022235;28;20233;-81
2023/05/12 07:11:21;;;;;;;5.07;4.33;;;;;;;;;;4995302;28;20211;-81
2023/05/12 07:13:48;;;;;;;5.03;4.50;;;;;;;;;;5012958;28;20555;-81
2023/05/12 07:16:15;;;;;;;6.47;5.03;;;;;;;;;;5011618;28;20179;-81
2023/05/12 07:18:41;;;;;;;8.57;4.97;;;;;;;;;;4991326;28;20188;-79
2023/05/12 07:21:07;;;;;;;5.27;4.77;;;;;;;;;;5006115;28;20643;-78
2023/05/12 07:23:34;;;;;;;5.00;4.60;;;;;;;;;;5009501;28;20222;-78
2023/05/12 07:26:01;;;;;;;6.67;5.97;;;;;;;;;;5010945;28;20210;-78
2023/05/12 07:28:31;;;;;;;6.70;6.00;;;;;;;;;;4991787;28;20187;-78
2023/05/12 07:30:58;;;;;;;6.20;5.60;;;;;;;;;;5011974;28;20609;-79
2023/05/12 07:33:25;;;;;;;6.13;5.60;;;;;;;;;;5010994;28;20203;-78
2023/05/12 07:35:51;;;;;;;5.40;4.90;;;;;;;;;;5011536;28;20289;-78
2023/05/12 07:38:17;;;;;;;6.20;5.60;;;;;;;;;;5012194;28;20191;-79
2023/05/12 07:40:43;;;;;;;6.47;5.73;;;;;;;;;;5012076;28;20651;-79
2023/05/12 07:43:10;;;;;;;6.57;5.97;;;;;;;;;;5009978;28;20200;-79
2023/05/12 07:45:36;;;;;;;5.93;5.43;;;;;;;;;;4984528;28;20191;-79
2023/05/12 07:48:02;;;;;;;10.00;6.23;;;;;;;;;;5012324;28;20194;-79
2023/05/12 07:50:28;;;;;;;6.17;5.50;;;;;;;;;;5018110;28;20675;-79
2023/05/12 07:52:55;;;;;;;7.03;6.33;;;;;;;;;;5031052;28;20304;-79
2023/05/12 07:55:21;;;;;;;6.30;5.70;;;;;;;;;;5013415;28;20199;-79
2023/05/12 07:57:51;;;;;;;7.30;5.50;;;;;;;;;;5027383;28;20185;-79
2023/05/12 08:00:17;;;;;;;5.87;5.37;;;;;;;;;;5005328;28;20203;-79
2023/05/12 08:02:45;;;;;;;6.20;5.60;;;;;;;;;;4994372;28;20202;-79
2023/05/12 08:05:11;;;;;;;6.30;5.70;;;;;;;;;;4994274;28;20191;-79
2023/05/12 08:07:38;;;;;;;5.90;5.30;;;;;;;;;;5011040;28;20195;-79
2023/05/12 08:10:05;;;;;;;5.70;5.10;;;;;;;;;;5010071;28;20262;-79
2023/05/12 08:12:32;;;;;;;9.47;5.23;;;;;;;;;;5012036;28;20210;-79
2023/05/12 08:14:58;;;;;;;6.73;5.57;;;;;;;;;;5012650;28;20313;-79
2023/05/12 08:17:24;;;;;;;5.80;5.27;;;;;;;;;;5000452;28;20663;-79
2023/05/12 08:19:50;;;;;;;6.43;5.00;;;;;;;;;;4994706;28;20197;-79
2023/05/12 08:22:17;;;;;;;5.60;5.10;;;;;;;;;;5012186;28;20219;-79
2023/05/12 08:24:43;;;;;;;5.80;5.20;;;;;;;;;;5015886;28;20199;-79
2023/05/12 08:27:10;;;;;;;6.53;5.47;;;;;;;;;;5014881;28;20179;-79
2023/05/12 08:29:36;;;;;;;6.87;5.10;;;;;;;;;;5014375;28;20262;-79
2023/05/12 08:32:02;;;;;;;5.30;4.80;;;;;;;;;;5014322;28;20211;-79
2023/05/12 08:34:29;;;;;;;5.23;4.77;;;;;;;;;;5010661;28;20214;-79
2023/05/12 08:36:55;;;;;;;4.97;4.47;;;;;;;;;;5023430;28;20250;-79
2023/05/12 08:39:21;;;;;;;7.43;5.23;;;;;;;;;;5013283;28;20183;-79
2023/05/12 08:41:51;;;;;;;4.87;4.43;;;;;;;;;;4995174;28;20237;-79
2023/05/12 08:44:18;;;;;;;6.50;5.07;;;;;;;;;;5012292;28;20186;-79
2023/05/12 08:46:46;;;;;;;5.20;4.70;;;;;;;;;;5011639;28;20849;-79
2023/05/12 08:49:16;;;;;;;4.80;4.20;;;;;;;;;;5011652;28;20333;-79
2023/05/12 08:51:43;;;;;;;5.50;4.50;;;;;;;;;;5012097;28;20207;-79
2023/05/12 08:54:11;;;;;;;6.30;5.10;;;;;;;;;;5002056;28;20267;-79
2023/05/12 08:56:42;;;;;;;5.63;4.70;;;;;;;;;;5010709;28;20182;-79
2023/05/12 08:59:09;;;;;;;5.00;4.50;;;;;;;;;;4998266;28;20191;-79
2023/05/12 09:01:35;;;;;;;4.57;4.17;;;;;;;;;;5015178;28;20189;-79
2023/05/12 09:04:03;;;;;;;6.57;4.10;;;;;;;;;;5013278;28;20666;-79
2023/05/12 09:06:29;;;;;;;5.53;4.40;;;;;;;;;;5013009;28;20286;-79
2023/05/12 09:08:56;;;;;;;5.20;4.70;;;;;;;;;;5017161;28;20187;-79
2023/05/12 09:11:22;;;;;;;6.03;4.33;;;;;;;;;;5014336;28;20219;-79
2023/05/12 09:14:00;;;;;;;6.13;4.30;;;;;;;;;;5004330;28;20215;-79
2023/05/12 09:16:33;;;;;;;5.20;4.70;;;;;;;;;;5003392;28;20222;-80
2023/05/12 09:19:00;;;;;;;6.13;4.90;;;;;;;;;;5014824;28;20569;-75
2023/05/12 09:21:26;;;;;;;4.47;4.07;;;;;;;;;;5014608;28;20241;-79
2023/05/12 09:23:53;;;;;;;5.57;4.10;;;;;;;;;;5010100;28;20284;-79
2023/05/12 09:26:21;;;;;;;4.47;3.97;;;;;;;;;;4978731;28;20214;-80
2023/05/12 09:28:48;;;;;;;8.00;4.33;;;;;;;;;;5003711;28;20190;-80
2023/05/12 09:31:18;;;;;;;4.53;4.10;;;;;;;;;;4996555;28;20243;-80
2023/05/12 09:33:44;;;;;;;4.60;4.20;;;;;;;;;;5019587;28;20644;-79
2023/05/12 09:36:10;;;;;;;5.27;4.40;;;;;;;;;;5013756;28;20187;-80
2023/05/12 09:38:37;;;;;;;5.27;4.30;;;;;;;;;;5014087;28;20183;-79
2023/05/12 09:41:03;;;;;;;4.80;4.30;;;;;;;;;;4996785;28;20259;-79
2023/05/12 09:43:29;;;;;;;6.17;4.60;;;;;;;;;;5005781;28;20272;-79
2023/05/12 09:45:55;;;;;;;4.93;4.20;;;;;;;;;;5013198;28;20180;-79
2023/05/12 09:48:21;;;;;;;5.37;4.20;;;;;;;;;;5017788;28;20183;-79
2023/05/12 09:50:49;;;;;;;4.93;4.50;;;;;;;;;;5016979;28;20206;-79
2023/05/12 09:53:16;;;;;;;4.53;4.13;;;;;;;;;;5015986;28;20199;-79
2023/05/12 09:55:43;;;;;;;6.50;4.97;;;;;;;;;;4996850;28;20187;-79
2023/05/12 09:58:10;;;;;;;5.33;4.47;;;;;;;;;;5012970;28;20187;-79
2023/05/12 10:00:40;;;;;;;4.97;4.20;;;;;;;;;;5012740;28;20186;-79
2023/05/12 10:03:16;;;;;;;7.17;4.80;;;;;;;;;;5012504;28;20557;-79
2023/05/12 10:05:57;;;;;;;4.80;4.37;;;;;;;;;;5015909;28;20270;-79
2023/05/12 10:08:25;;;;;;;4.87;4.40;;;;;;;;;;5013379;28;20237;-79
2023/05/12 10:10:51;;;;;;;5.43;4.93;;;;;;;;;;4995839;28;20631;-79
2023/05/12 10:13:17;;;;;;;5.53;4.20;;;;;;;;;;4995579;28;20317;-79
2023/05/12 10:15:45;;;;;;;6.73;4.60;;;;;;;;;;5012402;28;20177;-79
2023/05/12 10:18:12;;;;;;;9.80;4.87;;;;;;;;;;4995447;28;20187;-79
2023/05/12 10:20:39;;;;;;;4.70;4.17;;;;;;;;;;5015360;28;20191;-80
2023/05/12 10:23:06;;;;;;;4.63;4.23;;;;;;;;;;5006642;28;20226;-80
2023/05/12 10:25:32;;;;;;;4.00;3.70;;;;;;;;;;5013211;28;20171;-80
2023/05/12 10:28:00;;;;;;;5.83;4.13;;;;;;;;;;5011815;28;20245;-80
2023/05/12 10:30:27;;;;;;;4.60;4.20;;;;;;;;;;5012531;28;20190;-81
2023/05/12 10:32:53;;;;;;;4.63;3.70;;;;;;;;;;5012601;28;20621;-80
2023/05/12 10:35:19;;;;;;;5.20;4.43;;;;;;;;;;5012144;28;20261;-79
2023/05/12 10:37:47;;;;;;;4.80;4.40;;;;;;;;;;4996473;28;20199;-79
2023/05/12 10:40:23;;;;;;;4.57;4.13;;;;;;;;;;5014125;28;20171;-79
2023/05/12 10:42:51;;;;;;;4.50;4.10;;;;;;;;;;5012301;28;20207;-79
2023/05/12 10:45:18;;;;;;;6.03;4.57;;;;;;;;;;5012949;28;20176;-79
2023/05/12 10:47:47;;;;;;;6.70;4.30;;;;;;;;;;5012069;28;20183;-79
2023/05/12 10:50:14;;;;;;;4.30;3.90;;;;;;;;;;5011890;28;20187;-79
2023/05/12 10:52:41;;;;;;;5.37;4.23;;;;;;;;;;5011893;28;20207;-79
2023/05/12 10:55:12;;;;;;;6.10;4.03;;;;;;;;;;5013854;28;20175;-79
2023/05/12 10:57:48;;;;;;;8.17;4.30;;;;;;;;;;5011829;28;20187;-79
2023/05/12 11:00:14;;;;;;;5.10;4.10;;;;;;;;;;5012858;28;20167;-79
2023/05/12 11:02:48;;;;;;;4.37;3.97;;;;;;;;;;5011170;28;20207;-79
2023/05/12 11:05:14;;;;;;;4.73;4.33;;;;;;;;;;5011663;28;20194;-80
2023/05/12 11:07:46;;;;;;;6.40;4.40;;;;;;;;;;5013208;28;20195;-79
2023/05/12 11:10:12;;;;;;;5.30;3.80;;;;;;;;;;5011546;28;20647;-79
2023/05/12 11:12:38;;;;;;;5.87;4.00;;;;;;;;;;5014745;28;20210;-79
2023/05/12 11:15:05;;;;;;;5.40;4.10;;;;;;;;;;5015539;28;20557;-77
2023/05/12 11:17:32;;;;;;;4.70;4.30;;;;;;;;;;4995960;28;20602;-78
2023/05/12 11:19:59;;;;;;;4.57;4.17;;;;;;;;;;5010382;28;20269;-78
2023/05/12 11:22:26;;;;;;;4.40;4.00;;;;;;;;;;5017090;28;20716;-78
2023/05/12 11:24:52;;;;;;;5.00;4.40;;;;;;;;;;5011562;28;20205;-78
2023/05/12 11:27:19;;;;;;;6.20;3.83;;;;;;;;;;5010977;28;20220;-78
2023/05/12 11:29:55;;;;;;;4.50;4.10;;;;;;;;;;5005212;28;20216;-78
2023/05/12 11:32:21;;;;;;;4.30;3.90;;;;;;;;;;5009968;28;20222;-78
2023/05/12 11:34:47;;;;;;;3.90;3.60;;;;;;;;;;5010989;28;20187;-78
2023/05/12 11:37:13;;;;;;;4.00;3.60;;;;;;;;;;5011741;28;20171;-77
2023/05/12 11:39:41;;;;;;;4.30;3.97;;;;;;;;;;5011687;28;20206;-77
2023/05/12 11:42:09;;;;;;;4.40;4.00;;;;;;;;;;4993631;28;20203;-77
2023/05/12 11:44:35;;;;;;;3.93;3.60;;;;;;;;;;5004426;28;20186;-78
2023/05/12 11:47:03;;;;;;;4.50;3.70;;;;;;;;;;5026362;28;20254;-77
2023/05/12 11:49:29;;;;;;;4.40;4.00;;;;;;;;;;5010818;28;20261;-77
2023/05/12 11:51:57;;;;;;;4.63;3.73;;;;;;;;;;5004661;28;20218;-78
2023/05/12 11:54:24;;;;;;;4.67;3.83;;;;;;;;;;5010683;28;20187;-78
2023/05/12 11:56:54;;;;;;;4.33;3.80;;;;;;;;;;4994049;28;20183;-77
2023/05/12 11:59:28;;;;;;;4.47;3.90;;;;;;;;;;4990839;28;20192;-78
2023/05/12 12:01:54;;;;;;;4.97;3.80;;;;;;;;;;5006400;28;20211;-77
2023/05/12 12:04:30;;;;;;;3.90;3.40;;;;;;;;;;4993641;28;20198;-77
2023/05/12 12:06:56;;;;;;;4.10;3.50;;;;;;;;;;5010422;28;20183;-77
2023/05/12 12:09:29;;;;;;;4.17;3.70;;;;;;;;;;5008468;28;20197;-77
2023/05/12 12:11:55;;;;;;;4.30;3.80;;;;;;;;;;5021956;28;20270;-77
2023/05/12 12:14:22;;;;;;;4.10;3.67;;;;;;;;;;5010838;28;20185;-77
2023/05/12 12:16:48;;;;;;;4.73;3.90;;;;;;;;;;5011301;28;20186;-77
2023/05/12 12:19:14;;;;;;;5.40;3.83;;;;;;;;;;5010358;28;20183;-77
2023/05/12 12:21:41;;;;;;;3.73;3.40;;;;;;;;;;5010473;28;20207;-78
2023/05/12 12:24:07;;;;;;;6.87;3.90;;;;;;;;;;5009476;28;20189;-78
2023/05/12 12:26:33;;;;;;;4.60;3.80;;;;;;;;;;5011272;28;20225;-77
2023/05/12 12:29:00;;;;;;;4.70;4.03;;;;;;;;;;4993539;28;20187;-76
2023/05/12 12:31:29;;;;;;;9.13;3.87;;;;;;;;;;5010612;28;20234;-77
2023/05/12 12:33:55;;;;;;;4.20;3.33;;;;;;;;;;5014190;28;20287;-77
2023/05/12 12:36:22;;;;;;;3.93;3.63;;;;;;;;;;5015143;28;20175;-78
2023/05/12 12:38:48;;;;;;;3.73;3.43;;;;;;;;;;5014854;28;20195;-77
2023/05/12 12:41:14;;;;;;;3.90;3.50;;;;;;;;;;5013496;28;20262;-77
2023/05/12 12:43:41;;;;;;;5.20;3.43;;;;;;;;;;5007069;28;20651;-77
2023/05/12 12:46:07;;;;;;;3.97;3.37;;;;;;;;;;5013380;28;20553;-77
2023/05/12 12:48:33;;;;;;;5.03;3.30;;;;;;;;;;5013279;28;20207;-77
2023/05/12 12:51:00;;;;;;;4.30;3.40;;;;;;;;;;5013041;28;20214;-77
2023/05/12 12:53:26;;;;;;;4.00;3.10;;;;;;;;;;5011513;28;20202;-77
2023/05/12 12:55:52;;;;;;;3.93;3.20;;;;;;;;;;5014368;28;20268;-77
2023/05/12 12:58:19;;;;;;;3.50;3.20;;;;;;;;;;5013202;28;20233;-77
2023/05/12 13:00:45;;;;;;;3.70;3.30;;;;;;;;;;5013289;28;20197;-77
2023/05/12 13:03:11;;;;;;;3.90;3.50;;;;;;;;;;5013791;28;20659;-77
2023/05/12 13:05:37;;;;;;;4.00;3.60;;;;;;;;;;5013743;28;20179;-77
2023/05/12 13:08:04;;;;;;;3.40;3.10;;;;;;;;;;5014548;28;20179;-77
2023/05/12 13:10:30;;;;;;;4.93;3.30;;;;;;;;;;5014157;28;20631;-77
2023/05/12 13:12:56;;;;;;;4.37;3.63;;;;;;;;;;5012625;28;20206;-77
2023/05/12 13:15:22;;;;;;;3.80;3.40;;;;;;;;;;5013282;28;20240;-76
2023/05/12 13:17:48;;;;;;;3.77;3.27;;;;;;;;;;5014256;28;20175;-76
2023/05/12 13:20:15;;;;;;;3.73;3.33;;;;;;;;;;5012631;28;20589;-76
2023/05/12 13:22:42;;;;;;;3.63;3.20;;;;;;;;;;4995995;28;20230;-77
2023/05/12 13:25:09;;;;;;;4.67;3.40;;;;;;;;;;5014292;28;20302;-77
2023/05/12 13:27:37;;;;;;;4.13;3.30;;;;;;;;;;5013277;28;20210;-77
2023/05/12 13:30:05;;;;;;;6.03;3.23;;;;;;;;;;5011126;28;20868;-77
2023/05/12 13:32:31;;;;;;;3.40;3.10;;;;;;;;;;5014153;28;20250;-77
2023/05/12 13:34:57;;;;;;;3.20;2.90;;;;;;;;;;5014262;28;20187;-77
2023/05/12 13:37:23;;;;;;;3.73;2.97;;;;;;;;;;5008109;28;20271;-77
2023/05/12 13:39:50;;;;;;;3.67;3.20;;;;;;;;;;5028444;28;20274;-78
2023/05/12 13:42:16;;;;;;;5.03;3.10;;;;;;;;;;5012040;28;20644;-77
2023/05/12 13:44:42;;;;;;;6.13;3.33;;;;;;;;;;5013677;28;20179;-77
2023/05/12 13:47:09;;;;;;;3.10;2.90;;;;;;;;;;5014385;28;20183;-77
2023/05/12 13:49:35;;;;;;;4.17;2.90;;;;;;;;;;5014175;28;20214;-77
2023/05/12 13:52:02;;;;;;;3.13;2.80;;;;;;;;;;5015201;28;20210;-76
2023/05/12 13:54:28;;;;;;;3.03;2.70;;;;;;;;;;5009193;28;20271;-77
2023/05/12 13:56:54;;;;;;;3.07;2.77;;;;;;;;;;4997495;28;20183;-77
2023/05/12 13:59:21;;;;;;;2.50;2.30;;;;;;;;;;4995942;28;20290;-77
2023/05/12 14:01:47;;;;;;;2.63;2.27;;;;;;;;;;5012123;28;20175;-77
2023/05/12 14:04:13;;;;;;;2.57;2.37;;;;;;;;;;5013384;28;20714;-76
2023/05/12 14:06:39;;;;;;;2.50;2.30;;;;;;;;;;5011061;28;20183;-77
2023/05/12 14:09:05;;;;;;;2.33;2.20;;;;;;;;;;5011493;28;20187;-77
2023/05/12 14:11:32;;;;;;;2.50;2.30;;;;;;;;;;5013012;28;20203;-77
2023/05/12 14:14:02;;;;;;;1.90;1.73;;;;;;;;;;5012863;28;20187;-77
2023/05/12 14:16:28;;;;;;;1.50;1.40;;;;;;;;;;5027889;28;20182;-77
2023/05/12 14:18:55;;;;;;;1.97;1.50;;;;;;;;;;5005015;28;20556;-76
2023/05/12 14:21:21;;;;;;;2.70;1.60;;;;;;;;;;5013008;28;20190;-78
2023/05/12 14:23:48;;;;;;;1.97;1.70;;;;;;;;;;5012875;28;20250;-77
2023/05/12 14:26:14;;;;;;;2.20;1.50;;;;;;;;;;5011596;28;20190;-77
2023/05/12 14:28:40;;;;;;;2.60;1.50;;;;;;;;;;5018315;28;20717;-78
2023/05/12 14:31:06;;;;;;;1.40;1.30;;;;;;;;;;5011314;28;20222;-77
2023/05/12 14:33:32;;;;;;;1.33;1.23;;;;;;;;;;5013024;28;20195;-77
2023/05/12 14:35:59;;;;;;;1.47;1.37;;;;;;;;;;5013587;28;20580;-77